Time;durP1;ratioP1;P1;durP2;ratioP2;P2;SDS_P1;SDS_P2;PMS_P1;PMS_P2;Temp;Humidity;BMP_temperature;BMP_pressure;BME280_temperature;BME280_humidity;BME280_pressure;Samples;Min_cycle;Max_cycle;Signal;HPM_P1;HPM_P2
2022/09/20 00:01:07;;;;;;;2.58;0.70;;;20.20;67.20;;;;;;5072810;28;20041;-59
2022/09/20 00:03:34;;;;;;;4.43;1.00;;;20.10;67.20;;;;;;5072362;28;20093;-59
2022/09/20 00:06:01;;;;;;;4.57;1.13;;;20.10;67.20;;;;;;5072889;28;20075;-60
2022/09/20 00:08:29;;;;;;;2.67;0.73;;;20.20;67.20;;;;;;5072593;28;20048;-59
2022/09/20 00:11:02;;;;;;;3.45;1.15;;;20.10;67.20;;;;;;5071816;28;20036;-59
2022/09/20 00:13:28;;;;;;;2.25;0.65;;;20.10;67.20;;;;;;5072349;28;20040;-60
2022/09/20 00:15:53;;;;;;;4.82;1.00;;;20.10;67.20;;;;;;5072486;28;20123;-60
2022/09/20 00:18:19;;;;;;;3.25;0.80;;;20.10;67.20;;;;;;5071757;28;20119;-60
2022/09/20 00:20:45;;;;;;;6.00;1.00;;;20.10;67.10;;;;;;5072979;28;20492;-60
2022/09/20 00:23:14;;;;;;;2.92;0.98;;;20.10;67.10;;;;;;5072297;28;20055;-60
2022/09/20 00:25:39;;;;;;;3.05;0.60;;;20.10;67.10;;;;;;5071972;28;20154;-60
2022/09/20 00:28:05;;;;;;;2.95;0.63;;;20.10;67.10;;;;;;5072725;28;20045;-60
2022/09/20 00:30:31;;;;;;;4.80;1.20;;;20.10;67.10;;;;;;5072117;28;20488;-60
2022/09/20 00:32:57;;;;;;;3.95;1.25;;;20.10;67.10;;;;;;5070943;28;20122;-60
2022/09/20 00:35:26;;;;;;;3.08;0.80;;;20.10;67.10;;;;;;5071709;28;20480;-60
2022/09/20 00:37:55;;;;;;;3.63;0.88;;;20.10;67.10;;;;;;5072494;28;20048;-60
2022/09/20 00:40:25;;;;;;;4.05;0.77;;;20.10;67.10;;;;;;5070843;28;20109;-60
2022/09/20 00:42:51;;;;;;;3.22;0.70;;;20.10;67.20;;;;;;5071910;28;20047;-59
2022/09/20 00:45:24;;;;;;;2.85;1.00;;;20.00;67.10;;;;;;5070988;28;20127;-59
2022/09/20 00:48:00;;;;;;;3.30;0.90;;;20.00;67.10;;;;;;5072576;28;20072;-59
2022/09/20 00:50:50;;;;;;;2.65;0.70;;;20.00;67.00;;;;;;5071728;28;20049;-59
2022/09/20 00:53:19;;;;;;;3.10;0.85;;;20.00;67.00;;;;;;5053268;28;20174;-60
2022/09/20 00:55:48;;;;;;;2.65;0.70;;;20.10;67.20;;;;;;5072525;28;20044;-59
2022/09/20 00:58:14;;;;;;;3.22;0.60;;;20.00;67.10;;;;;;5072064;28;20135;-59
2022/09/20 01:00:39;;;;;;;1.85;0.65;;;20.00;67.10;;;;;;5071030;28;20287;-59
2022/09/20 01:03:06;;;;;;;2.00;0.70;;;20.00;67.10;;;;;;5038074;28;20522;-59
2022/09/20 01:05:32;;;;;;;4.38;0.82;;;20.00;67.00;;;;;;5054567;28;20495;-60
2022/09/20 01:07:57;;;;;;;4.85;0.70;;;20.00;67.00;;;;;;5071594;28;20041;-61
2022/09/20 01:10:23;;;;;;;3.10;0.65;;;20.00;67.10;;;;;;5054194;28;20086;-61
2022/09/20 01:12:49;;;;;;;2.58;0.73;;;20.00;67.00;;;;;;5072461;28;20049;-60
2022/09/20 01:15:14;;;;;;;3.90;0.80;;;20.00;67.00;;;;;;5036399;28;20040;-60
2022/09/20 01:17:43;;;;;;;1.90;0.60;;;20.00;67.00;;;;;;5054203;28;20087;-60
2022/09/20 01:20:13;;;;;;;2.08;0.77;;;20.00;67.00;;;;;;5054269;28;20044;-60
2022/09/20 01:22:52;;;;;;;1.92;0.60;;;19.90;66.90;;;;;;5053534;28;20040;-61
2022/09/20 01:25:52;;;;;;;2.42;0.80;;;20.00;66.90;;;;;;5039183;28;20051;-60
2022/09/20 01:28:21;;;;;;;2.17;0.60;;;19.90;66.90;;;;;;5070985;28;20075;-60
2022/09/20 01:30:56;;;;;;;4.40;0.80;;;19.90;66.90;;;;;;5037112;28;20101;-61
2022/09/20 01:33:35;;;;;;;2.72;0.80;;;19.90;66.90;;;;;;5053806;28;20533;-61
2022/09/20 01:36:02;;;;;;;3.25;0.73;;;19.90;66.90;;;;;;5071095;28;20071;-61
2022/09/20 01:38:34;;;;;;;3.70;0.80;;;19.90;66.90;;;;;;5037493;28;20059;-61
2022/09/20 01:41:18;;;;;;;3.42;0.60;;;19.90;66.90;;;;;;5071605;28;20052;-61
2022/09/20 01:44:05;;;;;;;3.22;0.60;;;19.90;66.90;;;;;;5038511;28;20404;-60
2022/09/20 01:46:32;;;;;;;3.05;0.57;;;19.90;66.90;;;;;;5037037;28;20056;-60
2022/09/20 01:49:31;;;;;;;2.47;0.57;;;19.90;66.90;;;;;;5071141;28;20055;-60
2022/09/20 01:52:21;;;;;;;2.35;0.68;;;19.90;66.90;;;;;;5071876;28;20049;-60
2022/09/20 01:54:47;;;;;;;3.47;0.70;;;19.90;66.90;;;;;;5074681;28;20049;-61
2022/09/20 01:57:50;;;;;;;3.22;0.73;;;19.90;67.00;;;;;;5074274;28;20047;-61
2022/09/20 02:00:22;;;;;;;3.40;0.60;;;19.90;66.80;;;;;;5055455;28;20045;-60
2022/09/20 02:03:28;;;;;;;3.28;0.98;;;19.90;66.90;;;;;;5052973;28;20049;-61
2022/09/20 02:06:18;;;;;;;2.35;0.60;;;19.90;66.80;;;;;;5054857;28;20400;-61
2022/09/20 02:09:08;;;;;;;3.03;0.60;;;19.90;66.90;;;;;;5055292;28;20041;-61
2022/09/20 02:11:55;;;;;;;1.80;0.60;;;19.80;66.80;;;;;;5054783;28;20098;-60
2022/09/20 02:14:20;;;;;;;2.53;0.60;;;19.80;66.80;;;;;;5054343;28;20072;-60
2022/09/20 02:17:08;;;;;;;3.42;0.60;;;19.80;66.80;;;;;;5054386;28;20396;-60
2022/09/20 02:19:34;;;;;;;;;;;19.80;66.80;;;;;;5055600;28;20131;-61
2022/09/20 02:22:25;;;;;;;2.00;0.60;;;19.80;66.80;;;;;;5055282;28;20015;-61
2022/09/20 02:25:30;;;;;;;3.10;0.52;;;19.80;66.80;;;;;;5054022;28;20524;-60
2022/09/20 02:28:14;;;;;;;2.60;0.60;;;19.80;66.80;;;;;;5055174;28;20044;-60
2022/09/20 02:31:00;;;;;;;2.20;0.85;;;19.80;66.80;;;;;;5053303;28;20420;-60
2022/09/20 02:33:35;;;;;;;2.95;0.50;;;19.80;66.80;;;;;;5036916;28;20057;-61
2022/09/20 02:36:21;;;;;;;1.17;0.52;;;19.80;66.80;;;;;;5036877;28;20044;-60
2022/09/20 02:38:55;;;;;;;2.78;0.70;;;19.80;66.80;;;;;;5053272;28;20049;-60
2022/09/20 02:41:24;;;;;;;3.08;0.50;;;19.80;66.80;;;;;;5054307;28;20072;-60
2022/09/20 02:44:08;;;;;;;2.28;0.60;;;19.80;66.90;;;;;;5054712;28;20136;-60
2022/09/20 02:46:44;;;;;;;2.30;0.50;;;19.80;66.70;;;;;;5019649;28;20449;-60
2022/09/20 02:49:32;;;;;;;1.92;0.70;;;19.80;66.80;;;;;;5020527;28;20443;-60
2022/09/20 02:52:03;;;;;;;1.80;0.50;;;19.70;66.70;;;;;;5035843;28;20493;-60
2022/09/20 02:54:56;;;;;;;1.75;0.40;;;19.70;66.90;;;;;;5037012;28;20040;-60
2022/09/20 02:57:46;;;;;;;2.05;0.65;;;19.70;66.70;;;;;;5020715;28;20036;-60
2022/09/20 03:00:16;;;;;;;3.13;0.57;;;19.70;66.70;;;;;;5021079;28;20053;-60
2022/09/20 03:02:59;;;;;;;2.13;0.60;;;19.70;66.70;;;;;;5020653;28;20049;-60
2022/09/20 03:05:50;;;;;;;1.95;0.52;;;19.70;66.70;;;;;;5020788;28;20056;-60
2022/09/20 03:08:30;;;;;;;2.15;0.60;;;19.70;66.70;;;;;;5036330;28;20049;-60
2022/09/20 03:11:18;;;;;;;1.35;0.50;;;19.70;66.70;;;;;;5054291;28;20099;-60
2022/09/20 03:14:17;;;;;;;1.13;0.50;;;19.70;66.70;;;;;;5035375;28;20053;-60
2022/09/20 03:17:22;;;;;;;1.55;0.60;;;19.70;66.70;;;;;;5036286;28;20037;-60
2022/09/20 03:20:08;;;;;;;2.13;0.50;;;19.70;66.70;;;;;;5036247;28;20087;-60
2022/09/20 03:23:05;;;;;;;2.30;0.50;;;19.70;66.70;;;;;;5038897;28;20036;-60
2022/09/20 03:25:57;;;;;;;2.58;0.60;;;19.70;66.70;;;;;;5021058;28;20056;-60
2022/09/20 03:28:38;;;;;;;2.42;0.68;;;19.70;66.70;;;;;;5020338;28;20055;-60
2022/09/20 03:31:36;;;;;;;2.05;0.55;;;19.70;66.70;;;;;;5053421;28;20488;-60
2022/09/20 03:34:16;;;;;;;2.22;0.60;;;19.70;66.70;;;;;;5038147;28;20051;-60
2022/09/20 03:36:44;;;;;;;1.10;0.38;;;19.60;66.60;;;;;;5020190;28;20045;-60
2022/09/20 03:39:21;;;;;;;2.75;0.50;;;19.70;66.70;;;;;;5053038;28;20045;-60
2022/09/20 03:41:58;;;;;;;2.88;0.63;;;19.60;66.60;;;;;;5053271;28;20040;-60
2022/09/20 03:44:35;;;;;;;1.75;0.40;;;19.70;66.60;;;;;;5019173;28;20570;-60
2022/09/20 03:47:32;;;;;;;3.55;0.50;;;19.60;66.60;;;;;;5036349;28;20110;-61
2022/09/20 03:50:36;;;;;;;1.65;0.43;;;19.60;67.20;;;;;;5038227;28;20064;-60
2022/09/20 03:53:22;;;;;;;3.05;0.60;;;19.60;66.50;;;;;;4972490;28;20047;-60
2022/09/20 03:56:10;;;;;;;1.55;0.40;;;19.60;66.60;;;;;;5049140;28;20483;-61
2022/09/20 03:58:43;;;;;;;2.08;0.50;;;19.60;66.60;;;;;;5052914;28;20045;-61
2022/09/20 04:01:37;;;;;;;2.55;0.70;;;19.60;66.60;;;;;;5037212;28;20044;-61
2022/09/20 04:04:35;;;;;;;1.65;0.40;;;19.60;66.60;;;;;;5054198;28;20052;-61
2022/09/20 04:07:28;;;;;;;2.40;0.50;;;19.60;66.50;;;;;;5058455;28;20048;-61
2022/09/20 04:10:25;;;;;;;2.70;0.43;;;19.60;66.60;;;;;;5071986;28;20444;-60
2022/09/20 04:13:17;;;;;;;2.15;0.40;;;19.60;66.50;;;;;;5040448;28;20187;-61
2022/09/20 04:16:03;;;;;;;1.83;0.43;;;19.60;66.60;;;;;;5057789;28;20044;-60
2022/09/20 04:18:57;;;;;;;1.73;0.55;;;19.60;66.50;;;;;;5071814;28;20096;-60
2022/09/20 04:21:54;;;;;;;2.17;0.80;;;19.60;66.50;;;;;;5054492;28;20040;-60
2022/09/20 04:24:27;;;;;;;1.50;0.52;;;19.50;66.50;;;;;;5071917;28;20040;-60
2022/09/20 04:27:16;;;;;;;2.25;0.40;;;19.50;66.50;;;;;;5039171;28;20040;-60
2022/09/20 04:29:49;;;;;;;1.35;0.40;;;19.60;66.50;;;;;;5057085;28;20093;-60
2022/09/20 04:32:32;;;;;;;1.25;0.50;;;19.50;66.50;;;;;;5053574;28;20139;-60
2022/09/20 04:37:45;;;;;;;1.20;0.35;;;19.60;66.50;;;;;;5056554;28;20086;-60
2022/09/20 04:40:33;;;;;;;2.33;0.50;;;19.50;66.50;;;;;;5038026;28;20076;-61
2022/09/20 04:43:39;;;;;;;1.95;0.50;;;19.50;66.40;;;;;;5054970;28;20055;-61
2022/09/20 04:46:38;;;;;;;2.60;0.40;;;19.50;66.50;;;;;;5053519;28;20512;-61
2022/09/20 04:49:32;;;;;;;1.50;0.30;;;19.50;66.50;;;;;;5072767;28;20075;-61
2022/09/20 04:52:19;;;;;;;2.38;0.60;;;19.50;66.40;;;;;;5055688;28;20049;-61
2022/09/20 04:55:08;;;;;;;2.38;0.40;;;19.50;66.50;;;;;;5054389;28;20044;-60
2022/09/20 04:57:53;;;;;;;0.88;0.40;;;19.50;66.40;;;;;;5072183;28;20404;-60
2022/09/20 05:00:19;;;;;;;2.55;0.43;;;19.50;66.40;;;;;;5054786;28;20430;-61
2022/09/20 05:03:09;;;;;;;2.30;0.40;;;19.50;66.50;;;;;;5037902;28;20552;-60
2022/09/20 05:06:08;;;;;;;2.00;0.40;;;19.50;66.40;;;;;;5071799;28;20488;-58
2022/09/20 05:08:49;;;;;;;1.02;0.35;;;19.50;66.40;;;;;;5054314;28;20442;-61
2022/09/20 05:11:17;;;;;;;0.88;0.30;;;19.50;66.40;;;;;;5072079;28;20044;-61
2022/09/20 05:14:01;;;;;;;;;;;19.50;66.40;;;;;;5071542;28;20049;-60
2022/09/20 05:16:46;;;;;;;1.05;0.30;;;19.50;66.40;;;;;;5071614;28;19985;-60
2022/09/20 05:19:46;;;;;;;2.70;0.40;;;19.40;66.50;;;;;;5053845;28;20500;-60
2022/09/20 05:22:31;;;;;;;1.25;0.30;;;19.50;66.60;;;;;;5056449;28;20143;-60
2022/09/20 05:25:33;;;;;;;1.10;0.40;;;19.50;66.60;;;;;;5054695;28;20045;-60
2022/09/20 05:28:41;;;;;;;1.08;0.40;;;19.50;66.70;;;;;;5071816;28;20115;-60
2022/09/20 05:31:23;;;;;;;1.85;0.40;;;19.50;66.70;;;;;;5070475;28;20072;-60
2022/09/20 05:34:26;;;;;;;1.65;0.40;;;19.50;66.60;;;;;;5058967;28;20049;-60
2022/09/20 05:37:09;;;;;;;2.35;0.38;;;19.50;66.60;;;;;;5043651;28;20052;-60
2022/09/20 05:40:02;;;;;;;2.00;0.30;;;19.50;66.60;;;;;;5075782;28;20053;-60
2022/09/20 05:42:39;;;;;;;1.80;0.50;;;19.50;66.60;;;;;;5075078;28;20051;-60
2022/09/20 05:45:36;;;;;;;2.85;0.47;;;19.60;66.70;;;;;;5057694;28;20048;-60
2022/09/20 05:48:30;;;;;;;1.30;0.35;;;19.60;66.70;;;;;;5074975;28;20052;-61
2022/09/20 05:51:17;;;;;;;1.00;0.30;;;19.50;66.60;;;;;;5061056;28;20045;-61
2022/09/20 05:54:04;;;;;;;2.97;0.70;;;19.60;66.70;;;;;;5043303;28;20118;-60
2022/09/20 05:56:36;;;;;;;1.83;0.50;;;19.60;66.70;;;;;;5074639;28;20040;-60
2022/09/20 05:59:25;;;;;;;1.15;0.55;;;19.60;66.60;;;;;;5075396;28;20048;-60
2022/09/20 06:02:31;;;;;;;1.48;0.30;;;19.60;66.60;;;;;;5058454;28;20515;-61
2022/09/20 06:05:13;;;;;;;1.27;0.40;;;19.70;66.70;;;;;;5040872;28;20052;-61
2022/09/20 06:07:49;;;;;;;0.73;0.30;;;19.70;66.70;;;;;;5059115;28;20037;-60
2022/09/20 06:10:19;;;;;;;1.42;0.40;;;19.70;66.60;;;;;;5056458;28;20112;-60
2022/09/20 06:13:30;;;;;;;1.25;0.40;;;19.80;66.70;;;;;;5075311;28;20048;-60
2022/09/20 06:16:00;;;;;;;1.13;0.30;;;19.80;66.60;;;;;;5060076;28;20402;-60
2022/09/20 06:18:49;;;;;;;2.10;0.32;;;19.80;66.60;;;;;;5057676;28;20048;-60
2022/09/20 06:21:22;;;;;;;3.50;0.47;;;19.80;66.60;;;;;;5057330;28;20456;-60
2022/09/20 06:23:47;;;;;;;2.33;0.30;;;19.80;66.50;;;;;;5048209;28;20037;-61
2022/09/20 06:26:18;;;;;;;1.63;0.22;;;19.80;66.50;;;;;;5041832;28;20515;-60
2022/09/20 06:28:53;;;;;;;3.40;0.70;;;19.90;66.50;;;;;;5036077;28;20045;-59
2022/09/20 06:31:19;;;;;;;1.17;0.30;;;19.90;66.60;;;;;;5036496;28;20057;-59
2022/09/20 06:33:56;;;;;;;3.15;0.35;;;19.90;66.60;;;;;;5037358;28;20048;-59
2022/09/20 06:42:21;;;;;;;3.47;0.40;;;20.00;66.70;;;;;;5025972;28;20106;-60
2022/09/20 06:44:46;;;;;;;2.80;0.30;;;20.00;66.60;;;;;;5053329;28;20432;-59
2022/09/20 06:47:12;;;;;;;1.90;0.40;;;20.00;66.60;;;;;;5036596;28;20386;-58
2022/09/20 06:49:41;;;;;;;4.07;0.40;;;20.10;66.70;;;;;;5063465;28;20049;-57
2022/09/20 06:52:10;;;;;;;3.25;0.50;;;20.10;66.80;;;;;;5067583;28;20078;-59
2022/09/20 06:54:36;;;;;;;2.80;0.47;;;20.10;66.80;;;;;;5056837;28;20484;-59
2022/09/20 06:57:03;;;;;;;3.03;0.30;;;20.10;66.90;;;;;;5074613;28;20063;-59
2022/09/20 06:59:32;;;;;;;2.80;0.40;;;20.10;66.90;;;;;;5055816;28;20056;-59
2022/09/20 07:01:57;;;;;;;1.80;0.45;;;20.20;66.90;;;;;;5074049;28;20066;-59
2022/09/20 07:04:23;;;;;;;2.20;0.43;;;20.20;66.90;;;;;;5073814;28;20437;-59
2022/09/20 07:06:49;;;;;;;1.83;0.40;;;20.20;66.90;;;;;;5043044;28;20114;-59
2022/09/20 07:09:16;;;;;;;1.65;0.30;;;20.20;67.00;;;;;;5054183;28;20128;-59
2022/09/20 07:11:43;;;;;;;3.10;0.30;;;20.20;66.90;;;;;;5036138;28;20393;-59
2022/09/20 07:14:09;;;;;;;0.80;0.30;;;20.20;67.00;;;;;;5052819;28;20525;-59
2022/09/20 07:16:35;;;;;;;1.48;0.40;;;20.30;67.10;;;;;;5053650;28;20125;-59
2022/09/20 07:19:10;;;;;;;1.90;0.30;;;20.30;67.10;;;;;;5053430;28;20048;-59
2022/09/20 07:21:36;;;;;;;3.20;0.57;;;20.30;67.10;;;;;;5054286;28;20041;-60
2022/09/20 07:24:07;;;;;;;1.83;0.43;;;20.30;67.10;;;;;;5053943;28;20060;-59
2022/09/20 07:26:33;;;;;;;2.58;0.40;;;20.30;67.10;;;;;;5053206;28;20048;-59
2022/09/20 07:28:59;;;;;;;3.67;0.40;;;20.30;67.10;;;;;;5053396;28;20041;-59
2022/09/20 07:31:27;;;;;;;2.60;0.40;;;20.30;67.10;;;;;;5052968;28;20434;-60
2022/09/20 07:33:52;;;;;;;3.42;0.52;;;20.30;67.10;;;;;;5053194;28;20047;-59
2022/09/20 07:36:18;;;;;;;1.85;0.40;;;20.30;67.20;;;;;;5035521;28;20042;-59
2022/09/20 07:39:07;;;;;;;1.95;0.40;;;20.40;67.30;;;;;;5053715;28;20041;-59
2022/09/20 07:41:33;;;;;;;2.47;0.30;;;20.30;67.30;;;;;;5042224;28;20049;-59
2022/09/20 07:44:19;;;;;;;1.05;0.30;;;20.40;67.30;;;;;;5056727;28;20045;-58
2022/09/20 07:46:44;;;;;;;3.10;0.60;;;20.40;67.40;;;;;;5054895;28;20064;-59
2022/09/20 07:49:10;;;;;;;4.00;0.70;;;20.40;67.30;;;;;;5051519;28;20489;-59
2022/09/20 07:51:36;;;;;;;0.52;0.25;;;20.40;67.40;;;;;;5054385;28;20115;-59
2022/09/20 07:54:01;;;;;;;1.83;0.40;;;20.50;67.40;;;;;;5071136;28;20554;-59
2022/09/20 07:56:27;;;;;;;2.38;0.50;;;20.50;67.30;;;;;;5071221;28;20048;-59
2022/09/20 07:58:55;;;;;;;1.10;0.30;;;20.50;67.30;;;;;;5072473;28;20045;-60
2022/09/20 08:01:21;;;;;;;1.80;0.30;;;20.60;67.30;;;;;;5071512;28;20036;-59
2022/09/20 08:03:47;;;;;;;2.75;0.80;;;20.60;67.30;;;;;;5072766;28;20114;-58
2022/09/20 08:06:17;;;;;;;3.80;0.50;;;20.60;67.20;;;;;;5064623;28;20041;-57
2022/09/20 08:08:43;;;;;;;3.45;0.40;;;20.60;67.20;;;;;;5057108;28;20119;-59
2022/09/20 08:11:10;;;;;;;1.42;0.40;;;20.60;67.10;;;;;;5052582;28;20449;-60
2022/09/20 08:13:36;;;;;;;2.80;0.47;;;20.60;67.20;;;;;;5052797;28;20086;-60
2022/09/20 08:16:03;;;;;;;0.93;0.30;;;20.70;67.30;;;;;;5051350;28;20128;-60
2022/09/20 08:18:33;;;;;;;1.95;0.40;;;20.70;67.20;;;;;;5052698;28;20060;-60
2022/09/20 08:21:09;;;;;;;5.57;0.52;;;20.70;67.20;;;;;;5052335;28;20505;-60
2022/09/20 08:23:35;;;;;;;1.10;0.43;;;20.70;67.20;;;;;;5051664;28;20045;-60
2022/09/20 08:26:01;;;;;;;4.10;0.57;;;20.70;67.20;;;;;;5052267;28;20473;-60
2022/09/20 08:28:28;;;;;;;3.58;0.50;;;20.70;67.20;;;;;;5052069;28;20084;-60
2022/09/20 08:31:02;;;;;;;4.18;0.55;;;20.70;67.20;;;;;;5051027;28;20041;-60
2022/09/20 08:33:28;;;;;;;5.45;0.63;;;20.70;67.30;;;;;;5051730;28;20489;-60
2022/09/20 08:35:54;;;;;;;3.60;0.50;;;20.70;67.20;;;;;;5052381;28;20055;-62
2022/09/20 08:38:21;;;;;;;3.13;0.50;;;20.70;67.20;;;;;;5051111;28;20136;-60
2022/09/20 08:40:48;;;;;;;2.47;0.95;;;20.80;67.30;;;;;;5052447;28;20064;-60
2022/09/20 08:43:16;;;;;;;1.45;0.40;;;20.70;67.30;;;;;;5018187;28;20087;-61
2022/09/20 08:45:42;;;;;;;3.42;0.63;;;20.80;67.40;;;;;;5033434;28;20041;-60
2022/09/20 08:48:15;;;;;;;2.65;0.40;;;20.70;67.30;;;;;;5050291;28;20056;-60
2022/09/20 08:50:40;;;;;;;3.00;0.60;;;20.80;67.20;;;;;;5016723;28;20094;-60
2022/09/20 08:53:08;;;;;;;1.70;0.32;;;20.80;67.20;;;;;;5050877;28;20045;-60
2022/09/20 08:55:35;;;;;;;2.23;0.30;;;20.70;67.20;;;;;;5034539;28;20041;-60
2022/09/20 08:58:01;;;;;;;1.83;0.40;;;20.70;67.10;;;;;;5051563;28;20095;-60
2022/09/20 09:00:31;;;;;;;3.80;0.40;;;20.70;67.10;;;;;;5017304;28;20646;-60
2022/09/20 09:02:59;;;;;;;3.83;0.40;;;20.70;67.00;;;;;;5033830;28;20397;-60
2022/09/20 09:05:30;;;;;;;1.52;0.30;;;20.70;67.00;;;;;;5033334;28;20064;-60
2022/09/20 09:07:59;;;;;;;1.55;0.32;;;20.70;66.90;;;;;;5052016;28;20162;-60
2022/09/20 09:10:30;;;;;;;1.45;0.30;;;20.70;66.90;;;;;;5034288;28;20037;-60
2022/09/20 09:12:55;;;;;;;2.25;0.40;;;20.70;66.90;;;;;;5001548;28;20045;-60
2022/09/20 09:15:25;;;;;;;2.45;0.30;;;20.70;66.90;;;;;;5033775;28;20125;-60
2022/09/20 09:17:51;;;;;;;3.90;0.40;;;20.70;66.90;;;;;;5018552;28;20048;-60
2022/09/20 09:20:21;;;;;;;3.47;0.40;;;20.70;66.90;;;;;;5033694;28;20041;-60
2022/09/20 09:22:47;;;;;;;1.67;0.45;;;20.70;66.90;;;;;;5052079;28;20048;-60
2022/09/20 09:25:13;;;;;;;1.67;0.30;;;20.70;67.00;;;;;;5034150;28;20045;-60
2022/09/20 09:28:11;;;;;;;2.00;0.40;;;20.70;67.00;;;;;;5051210;28;20167;-61
2022/09/20 09:30:39;;;;;;;3.10;0.50;;;20.70;66.90;;;;;;5034095;28;20059;-60
2022/09/20 09:33:15;;;;;;;3.20;0.50;;;20.70;66.70;;;;;;5017160;28;20049;-60
2022/09/20 09:35:41;;;;;;;1.77;0.35;;;20.70;66.40;;;;;;5052177;28;20091;-61
2022/09/20 09:38:16;;;;;;;3.33;0.40;;;20.70;66.40;;;;;;5051483;28;20080;-60
2022/09/20 09:41:01;;;;;;;1.98;0.43;;;20.70;66.40;;;;;;5034753;28;20045;-59
2022/09/20 09:43:34;;;;;;;3.25;0.50;;;20.70;66.60;;;;;;5050522;28;20602;-60
2022/09/20 09:46:17;;;;;;;3.45;0.40;;;20.70;66.70;;;;;;5053352;28;20087;-60
2022/09/20 09:48:46;;;;;;;3.50;0.60;;;20.70;67.00;;;;;;5049945;28;20175;-60
2022/09/20 09:51:17;;;;;;;2.90;0.40;;;20.70;67.00;;;;;;5024919;28;20045;-60
2022/09/20 09:53:42;;;;;;;3.70;0.38;;;20.70;67.20;;;;;;5060452;28;20070;-60
2022/09/20 09:56:25;;;;;;;1.42;0.40;;;20.70;67.20;;;;;;5060223;28;20106;-60
2022/09/20 09:59:00;;;;;;;2.85;0.55;;;20.80;67.30;;;;;;5029610;28;20037;-60
2022/09/20 10:01:40;;;;;;;2.85;0.57;;;20.80;67.20;;;;;;5069349;28;20425;-60
2022/09/20 10:04:14;;;;;;;2.50;0.40;;;20.80;67.30;;;;;;5055397;28;20041;-60
2022/09/20 10:06:52;;;;;;;2.80;0.40;;;20.90;67.30;;;;;;5031187;28;20048;-61
2022/09/20 10:09:23;;;;;;;1.83;0.40;;;20.90;67.30;;;;;;5008746;28;20045;-60
2022/09/20 10:11:57;;;;;;;2.78;0.40;;;20.90;67.30;;;;;;5055971;28;20044;-61
2022/09/20 10:14:41;;;;;;;3.03;0.50;;;20.90;67.30;;;;;;5032983;28;20056;-60
2022/09/20 10:17:33;;;;;;;2.28;0.50;;;20.90;67.30;;;;;;5053780;28;20122;-60
2022/09/20 10:20:09;;;;;;;2.55;0.40;;;20.90;67.20;;;;;;5020519;28;20041;-61
2022/09/20 10:22:53;;;;;;;0.98;0.30;;;20.90;67.60;;;;;;5020548;28;20112;-60
2022/09/20 10:25:23;;;;;;;1.17;0.40;;;20.90;66.60;;;;;;5037777;28;20116;-61
2022/09/20 10:28:12;;;;;;;2.30;0.40;;;20.90;66.60;;;;;;5037163;28;20041;-61
2022/09/20 10:31:03;;;;;;;2.15;0.30;;;20.90;66.40;;;;;;5053907;28;20048;-60
2022/09/20 10:33:53;;;;;;;4.65;0.45;;;20.90;66.50;;;;;;5053379;28;20448;-60
2022/09/20 10:36:24;;;;;;;5.88;0.90;;;20.90;66.30;;;;;;5052026;28;20484;-60
2022/09/20 10:39:09;;;;;;;3.60;0.60;;;20.80;66.30;;;;;;5036646;28;20055;-60
2022/09/20 10:45:07;;;;;;;7.57;0.60;;;20.80;66.30;;;;;;5053183;28;20160;-60
2022/09/20 10:48:06;;;;;;;2.63;0.38;;;20.90;66.40;;;;;;5039957;28;20069;-60
2022/09/20 10:50:47;;;;;;;4.53;0.50;;;20.90;66.40;;;;;;5038086;28;20075;-60
2022/09/20 10:53:49;;;;;;;3.85;0.50;;;20.90;66.40;;;;;;5024332;28;20068;-59
2022/09/20 10:56:45;;;;;;;5.45;0.50;;;20.80;66.40;;;;;;5037159;28;20114;-59
2022/09/20 10:59:23;;;;;;;4.85;0.50;;;20.80;66.60;;;;;;5023972;28;20550;-59
2022/09/20 11:02:15;;;;;;;3.43;0.53;;;20.80;66.80;;;;;;5045559;28;20454;-60
2022/09/20 11:04:52;;;;;;;3.55;0.40;;;20.80;66.80;;;;;;5016698;28;20053;-59
2022/09/20 11:07:25;;;;;;;2.72;0.60;;;20.80;66.90;;;;;;5055343;28;20048;-59
2022/09/20 11:09:54;;;;;;;2.83;0.60;;;20.70;67.00;;;;;;5023930;28;20084;-60
2022/09/20 11:12:26;;;;;;;1.90;0.45;;;20.70;67.00;;;;;;5025848;28;20048;-60
2022/09/20 11:14:53;;;;;;;5.85;0.77;;;20.70;67.10;;;;;;5026977;28;20409;-59
2022/09/20 11:17:25;;;;;;;4.10;0.40;;;20.70;67.10;;;;;;5058426;28;20041;-60
2022/09/20 11:19:59;;;;;;;3.53;0.63;;;20.70;67.20;;;;;;5041036;28;20052;-60
2022/09/20 11:22:38;;;;;;;3.63;0.47;;;20.70;67.20;;;;;;5041368;28;20087;-60
2022/09/20 11:25:15;;;;;;;1.40;0.50;;;20.70;67.20;;;;;;5043991;28;20508;-60
2022/09/20 11:28:02;;;;;;;5.32;0.47;;;20.70;67.20;;;;;;5023911;28;20037;-60
2022/09/20 11:30:28;;;;;;;4.78;0.45;;;20.70;67.30;;;;;;5041642;28;20546;-60
2022/09/20 11:33:05;;;;;;;1.50;0.40;;;20.70;67.30;;;;;;5021899;28;20041;-60
2022/09/20 11:35:35;;;;;;;3.70;0.50;;;20.70;67.40;;;;;;5039054;28;20036;-60
2022/09/20 11:38:17;;;;;;;4.07;0.40;;;20.70;67.40;;;;;;5054405;28;20203;-60
2022/09/20 11:41:25;;;;;;;2.25;0.40;;;20.70;67.50;;;;;;5038620;28;20493;-59
2022/09/20 11:43:52;;;;;;;1.88;0.32;;;20.70;67.50;;;;;;4986639;28;20330;-60
2022/09/20 11:46:30;;;;;;;2.92;0.47;;;20.80;67.60;;;;;;4987533;28;20054;-60
2022/09/20 11:49:11;;;;;;;1.45;0.30;;;20.80;67.60;;;;;;5009974;28;20151;-60
2022/09/20 11:51:58;;;;;;;2.25;0.40;;;20.80;67.60;;;;;;5042329;28;20083;-59
2022/09/20 11:54:25;;;;;;;1.42;0.25;;;20.90;67.60;;;;;;5055860;28;20048;-60
2022/09/20 11:56:52;;;;;;;3.13;0.40;;;20.90;67.60;;;;;;5055737;28;20090;-60
2022/09/20 11:59:28;;;;;;;2.72;0.30;;;20.90;68.20;;;;;;5058681;28;20048;-60
2022/09/20 12:01:55;;;;;;;4.80;0.55;;;21.00;67.70;;;;;;5054838;28;20408;-61
2022/09/20 12:04:25;;;;;;;5.70;0.50;;;21.00;67.60;;;;;;5058993;28;20043;-60
2022/09/20 12:07:03;;;;;;;3.05;0.32;;;21.00;67.60;;;;;;5055982;28;20029;-60
2022/09/20 12:09:34;;;;;;;3.75;0.55;;;21.00;67.60;;;;;;5059486;28;20043;-60
2022/09/20 12:12:12;;;;;;;3.83;0.43;;;21.00;67.50;;;;;;5025198;28;20484;-61
2022/09/20 12:14:37;;;;;;;3.08;0.40;;;21.10;67.50;;;;;;5033109;28;20044;-61
2022/09/20 12:17:28;;;;;;;0.75;0.20;;;21.10;67.50;;;;;;4999097;28;20431;-61
2022/09/20 12:19:53;;;;;;;4.03;0.47;;;21.10;67.50;;;;;;4999793;28;20121;-60
2022/09/20 12:22:26;;;;;;;1.92;0.30;;;21.10;67.50;;;;;;4998303;28;20125;-61
2022/09/20 12:25:30;;;;;;;2.15;0.75;;;21.00;67.50;;;;;;4999076;28;20042;-63
2022/09/20 12:27:58;;;;;;;2.10;0.68;;;21.10;67.40;;;;;;4995307;28;20053;-61
2022/09/20 12:30:23;;;;;;;2.05;0.40;;;21.00;67.50;;;;;;4989846;28;20045;-60
2022/09/20 12:32:55;;;;;;;3.25;0.77;;;21.00;67.50;;;;;;4990066;28;20054;-60
2022/09/20 12:35:36;;;;;;;1.48;0.30;;;21.10;67.60;;;;;;4991419;28;20129;-60
2022/09/20 12:38:19;;;;;;;1.67;0.40;;;21.00;67.50;;;;;;4992018;28;20505;-59
2022/09/20 12:41:06;;;;;;;2.63;0.50;;;21.10;67.60;;;;;;4993195;28;20046;-59
2022/09/20 12:43:32;;;;;;;1.90;0.63;;;21.00;67.60;;;;;;4991954;28;20066;-59
2022/09/20 12:45:58;;;;;;;0.82;0.30;;;21.00;67.60;;;;;;4974639;28;20090;-59
2022/09/20 12:48:23;;;;;;;3.00;0.50;;;21.10;67.60;;;;;;4991775;28;20498;-59
2022/09/20 12:54:12;;;;;;;4.32;0.40;;;21.00;67.50;;;;;;4976017;28;20051;-61
2022/09/20 12:56:38;;;;;;;3.22;0.57;;;21.00;67.50;;;;;;4991110;28;20046;-60
2022/09/20 12:59:17;;;;;;;2.47;0.40;;;21.00;67.40;;;;;;4991589;28;20053;-60
2022/09/20 13:01:44;;;;;;;1.45;0.30;;;21.00;67.40;;;;;;4992359;28;20200;-60
2022/09/20 13:04:39;;;;;;;1.83;0.30;;;21.10;67.40;;;;;;4990554;28;20054;-61
2022/09/20 13:07:39;;;;;;;4.63;0.45;;;21.00;67.30;;;;;;4992640;28;20491;-60
2022/09/20 13:10:48;;;;;;;1.70;0.30;;;21.00;67.30;;;;;;4992601;28;20046;-60
2022/09/20 13:13:53;;;;;;;2.90;0.30;;;21.00;67.30;;;;;;4982093;28;20086;-61
2022/09/20 13:16:46;;;;;;;3.58;0.38;;;20.90;67.30;;;;;;4991864;28;20042;-61
2022/09/20 13:19:21;;;;;;;3.75;0.40;;;20.90;68.00;;;;;;4973103;28;20054;-61
2022/09/20 13:21:59;;;;;;;2.20;0.40;;;20.90;67.50;;;;;;4992454;28;20168;-62
2022/09/20 13:24:26;;;;;;;3.25;0.40;;;20.90;67.50;;;;;;4992328;28;20076;-60
2022/09/20 13:26:52;;;;;;;1.48;0.50;;;20.90;67.50;;;;;;5008015;28;20050;-62
2022/09/20 13:29:23;;;;;;;1.05;0.40;;;20.90;67.60;;;;;;5011350;28;20038;-60
2022/09/20 13:31:48;;;;;;;2.47;0.40;;;20.90;67.60;;;;;;5004280;28;20057;-60
2022/09/20 13:34:24;;;;;;;2.88;0.50;;;20.80;67.60;;;;;;5000461;28;20495;-60
2022/09/20 13:36:57;;;;;;;2.25;0.40;;;20.80;67.70;;;;;;4995489;28;20061;-60
2022/09/20 13:39:35;;;;;;;0.90;0.30;;;20.80;67.90;;;;;;4995533;28;20133;-60
2022/09/20 13:42:06;;;;;;;2.60;0.43;;;20.80;68.00;;;;;;5000963;28;20068;-60
2022/09/20 13:44:33;;;;;;;4.18;0.65;;;20.90;68.10;;;;;;5010805;28;20086;-60
2022/09/20 13:46:58;;;;;;;2.50;0.40;;;20.90;68.10;;;;;;5008713;28;20410;-60
2022/09/20 13:49:24;;;;;;;2.88;0.30;;;20.90;68.10;;;;;;5012254;28;20486;-60
2022/09/20 13:51:50;;;;;;;3.22;0.30;;;20.90;68.10;;;;;;5015155;28;20375;-60
2022/09/20 13:54:29;;;;;;;2.78;0.40;;;20.90;68.10;;;;;;5014588;28;20038;-60